Aviation Digital Data Service (ADDS)

Output produced by METARs form (1453 UTC 22 April 2019)
found at http://www.aviationweather.gov/metar/data/
 
Forecast for: ZGKL (GUILIN , CN)
Text: TAF ZGKL 220916Z 2212/2312 18002MPS 8000 SCT026 BKN050 TX30/2308Z TN22/2222Z
Forecast period: 1200 UTC 22 April 2019 to 1200 UTC 23 April 2019
Forecast type: FROM: standard forecast or significant change
Winds: from the S (180 degrees) at 5 MPH (4 knots; 2.1 m/s)
Visibility: 5 miles (8 km)
Ceiling: 5000 feet AGL
Clouds: scattered clouds at 2600 feet AGL
broken clouds at 5000 feet AGL
Weather: no significant weather forecast for this period
Text: TEMPO 2216/2222 2800 -TSRA BR FEW013 SCT023 FEW036CB BKN036
Forecast period: 1600 to 2200 UTC 22 April 2019
Forecast type: TEMPORARY: The following changes expected for less than half the time period
Visibility: 1.74 miles (2.80 km)
Ceiling: at least 12,000 feet AGL
Clouds: few clouds at 1300 feet AGL
scattered clouds at 2300 feet AGL
few clouds at 3600 feet AGL
Weather: -TSRA BR  (light rain associated with thunderstorm(s), mist)